sensor_id;sensor_type;location;lat;lon;timestamp;pressure;altitude;pressure_sealevel;temperature;humidity
73674;BME280;61975;48.660;10.164;2022-10-31T00:00:45;96083.06;;;10.72;100.00
73674;BME280;61975;48.660;10.164;2022-10-31T00:03:10;96083.06;;;10.72;100.00
73674;BME280;61975;48.660;10.164;2022-10-31T00:05:40;96079.16;;;10.73;100.00
73674;BME280;61975;48.660;10.164;2022-10-31T00:08:05;96083.53;;;10.74;100.00
73674;BME280;61975;48.660;10.164;2022-10-31T00:10:31;96089.88;;;10.75;100.00
73674;BME280;61975;48.660;10.164;2022-10-31T00:12:56;96085.13;;;10.75;100.00
73674;BME280;61975;48.660;10.164;2022-10-31T00:15:22;96092.22;;;10.73;100.00
73674;BME280;61975;48.660;10.164;2022-10-31T00:17:47;96096.47;;;10.67;100.00
73674;BME280;61975;48.660;10.164;2022-10-31T00:20:12;96088.84;;;10.60;100.00
73674;BME280;61975;48.660;10.164;2022-10-31T00:22:38;96099.09;;;10.56;100.00
73674;BME280;61975;48.660;10.164;2022-10-31T00:25:03;96088.75;;;10.53;100.00
73674;BME280;61975;48.660;10.164;2022-10-31T00:27:29;96100.94;;;10.49;100.00
73674;BME280;61975;48.660;10.164;2022-10-31T00:29:54;96098.13;;;10.45;100.00
73674;BME280;61975;48.660;10.164;2022-10-31T00:32:19;96093.25;;;10.39;100.00
73674;BME280;61975;48.660;10.164;2022-10-31T00:34:45;96098.38;;;10.37;100.00
73674;BME280;61975;48.660;10.164;2022-10-31T00:37:10;96099.50;;;10.32;100.00
73674;BME280;61975;48.660;10.164;2022-10-31T00:39:36;96101.47;;;10.32;100.00
73674;BME280;61975;48.660;10.164;2022-10-31T00:42:01;96109.00;;;10.31;100.00
73674;BME280;61975;48.660;10.164;2022-10-31T00:44:26;96101.81;;;10.30;100.00
73674;BME280;61975;48.660;10.164;2022-10-31T00:46:52;96099.00;;;10.27;100.00
73674;BME280;61975;48.660;10.164;2022-10-31T00:49:17;96106.16;;;10.28;100.00
73674;BME280;61975;48.660;10.164;2022-10-31T00:51:42;96103.00;;;10.29;100.00
73674;BME280;61975;48.660;10.164;2022-10-31T00:54:08;96098.94;;;10.23;100.00
73674;BME280;61975;48.660;10.164;2022-10-31T00:56:33;96098.50;;;10.21;100.00
73674;BME280;61975;48.660;10.164;2022-10-31T00:58:58;96105.66;;;10.22;100.00
73674;BME280;61975;48.660;10.164;2022-10-31T01:01:24;96101.66;;;10.20;100.00
73674;BME280;61975;48.660;10.164;2022-10-31T01:03:49;96105.16;;;10.17;100.00
73674;BME280;61975;48.660;10.164;2022-10-31T01:06:15;96110.25;;;10.15;100.00
73674;BME280;61975;48.660;10.164;2022-10-31T01:08:41;96103.97;;;10.18;100.00
73674;BME280;61975;48.660;10.164;2022-10-31T01:13:36;96096.03;;;10.16;100.00
73674;BME280;61975;48.660;10.164;2022-10-31T01:16:03;96105.53;;;10.15;100.00
73674;BME280;61975;48.660;10.164;2022-10-31T01:18:29;96098.75;;;10.13;100.00
73674;BME280;61975;48.660;10.164;2022-10-31T01:21:09;96095.91;;;10.09;100.00
73674;BME280;61975;48.660;10.164;2022-10-31T01:23:36;96100.56;;;10.05;100.00
73674;BME280;61975;48.660;10.164;2022-10-31T01:26:06;96101.28;;;10.02;100.00
73674;BME280;61975;48.660;10.164;2022-10-31T01:28:33;96099.63;;;9.98;100.00
73674;BME280;61975;48.660;10.164;2022-10-31T01:31:03;96102.63;;;9.89;100.00
73674;BME280;61975;48.660;10.164;2022-10-31T01:33:29;96091.84;;;9.84;100.00
73674;BME280;61975;48.660;10.164;2022-10-31T01:35:54;96098.56;;;9.83;100.00
73674;BME280;61975;48.660;10.164;2022-10-31T01:38:20;96099.72;;;9.82;100.00
73674;BME280;61975;48.660;10.164;2022-10-31T01:40:45;96094.94;;;9.79;100.00
73674;BME280;61975;48.660;10.164;2022-10-31T01:43:14;96093.69;;;9.77;100.00
73674;BME280;61975;48.660;10.164;2022-10-31T01:45:45;96100.03;;;9.77;100.00
73674;BME280;61975;48.660;10.164;2022-10-31T01:48:17;96097.56;;;9.72;100.00
73674;BME280;61975;48.660;10.164;2022-10-31T01:50:48;96090.34;;;9.68;100.00
73674;BME280;61975;48.660;10.164;2022-10-31T01:53:15;96093.47;;;9.66;100.00
73674;BME280;61975;48.660;10.164;2022-10-31T01:55:43;96086.34;;;9.65;100.00
73674;BME280;61975;48.660;10.164;2022-10-31T01:58:24;96083.56;;;9.65;100.00
73674;BME280;61975;48.660;10.164;2022-10-31T02:00:54;96083.13;;;9.63;100.00
73674;BME280;61975;48.660;10.164;2022-10-31T02:03:22;96094.22;;;9.63;100.00
73674;BME280;61975;48.660;10.164;2022-10-31T02:05:49;96082.63;;;9.58;100.00
73674;BME280;61975;48.660;10.164;2022-10-31T02:08:29;96081.41;;;9.55;100.00
73674;BME280;61975;48.660;10.164;2022-10-31T02:10:59;96089.97;;;9.50;100.00
73674;BME280;61975;48.660;10.164;2022-10-31T02:13:25;96085.53;;;9.46;100.00
73674;BME280;61975;48.660;10.164;2022-10-31T02:15:55;96086.72;;;9.45;100.00
73674;BME280;61975;48.660;10.164;2022-10-31T02:18:21;96080.81;;;9.46;100.00
73674;BME280;61975;48.660;10.164;2022-10-31T02:28:40;96081.75;;;9.35;100.00
73674;BME280;61975;48.660;10.164;2022-10-31T02:34:04;96080.22;;;9.37;100.00
73674;BME280;61975;48.660;10.164;2022-10-31T02:47:53;96078.25;;;9.38;100.00
73674;BME280;61975;48.660;10.164;2022-10-31T02:50:31;96073.88;;;9.37;100.00
73674;BME280;61975;48.660;10.164;2022-10-31T02:52:57;96077.03;;;9.35;100.00
73674;BME280;61975;48.660;10.164;2022-10-31T02:58:14;96073.81;;;9.33;100.00
73674;BME280;61975;48.660;10.164;2022-10-31T03:03:48;96067.75;;;9.28;100.00
73674;BME280;61975;48.660;10.164;2022-10-31T03:06:35;96074.84;;;9.25;100.00
73674;BME280;61975;48.660;10.164;2022-10-31T03:09:12;96074.31;;;9.20;100.00
73674;BME280;61975;48.660;10.164;2022-10-31T03:11:49;96071.56;;;9.20;100.00
73674;BME280;61975;48.660;10.164;2022-10-31T03:14:48;96077.09;;;9.20;100.00
73674;BME280;61975;48.660;10.164;2022-10-31T03:17:24;96075.84;;;9.17;100.00
73674;BME280;61975;48.660;10.164;2022-10-31T03:19:53;96073.44;;;9.16;100.00
73674;BME280;61975;48.660;10.164;2022-10-31T03:22:23;96077.38;;;9.15;100.00
73674;BME280;61975;48.660;10.164;2022-10-31T03:24:51;96074.59;;;9.15;100.00
73674;BME280;61975;48.660;10.164;2022-10-31T03:27:21;96073.09;;;9.17;100.00
73674;BME280;61975;48.660;10.164;2022-10-31T03:29:50;96075.03;;;9.17;100.00
73674;BME280;61975;48.660;10.164;2022-10-31T03:32:27;96073.09;;;9.17;100.00
73674;BME280;61975;48.660;10.164;2022-10-31T03:34:57;96070.31;;;9.17;100.00
73674;BME280;61975;48.660;10.164;2022-10-31T03:37:25;96072.63;;;9.15;100.00
73674;BME280;61975;48.660;10.164;2022-10-31T03:39:53;96075.78;;;9.14;100.00
73674;BME280;61975;48.660;10.164;2022-10-31T03:42:23;96075.78;;;9.14;100.00
73674;BME280;61975;48.660;10.164;2022-10-31T03:44:58;96069.81;;;9.12;100.00
73674;BME280;61975;48.660;10.164;2022-10-31T03:47:26;96070.94;;;9.11;100.00
73674;BME280;61975;48.660;10.164;2022-10-31T03:49:52;96076.84;;;9.09;100.00
73674;BME280;61975;48.660;10.164;2022-10-31T03:54:56;96078.03;;;9.08;100.00
73674;BME280;61975;48.660;10.164;2022-10-31T03:57:30;96065.34;;;9.07;100.00
73674;BME280;61975;48.660;10.164;2022-10-31T04:00:03;96071.63;;;9.04;100.00
73674;BME280;61975;48.660;10.164;2022-10-31T04:02:31;96075.91;;;9.02;100.00
73674;BME280;61975;48.660;10.164;2022-10-31T04:04:58;96066.34;;;8.99;100.00
73674;BME280;61975;48.660;10.164;2022-10-31T04:07:28;96073.06;;;8.98;100.00
73674;BME280;61975;48.660;10.164;2022-10-31T04:09:55;96067.88;;;8.97;100.00
73674;BME280;61975;48.660;10.164;2022-10-31T04:12:23;96070.13;;;8.91;100.00
73674;BME280;61975;48.660;10.164;2022-10-31T04:14:51;96068.81;;;8.85;100.00
73674;BME280;61975;48.660;10.164;2022-10-31T04:17:20;96075.88;;;8.83;100.00
73674;BME280;61975;48.660;10.164;2022-10-31T04:19:47;96078.94;;;8.78;100.00
73674;BME280;61975;48.660;10.164;2022-10-31T04:22:13;96076.88;;;8.75;100.00
73674;BME280;61975;48.660;10.164;2022-10-31T04:24:39;96069.31;;;8.72;100.00
73674;BME280;61975;48.660;10.164;2022-10-31T04:27:05;96069.22;;;8.68;100.00
73674;BME280;61975;48.660;10.164;2022-10-31T04:29:31;96075.50;;;8.65;100.00
73674;BME280;61975;48.660;10.164;2022-10-31T04:31:56;96072.63;;;8.62;100.00
73674;BME280;61975;48.660;10.164;2022-10-31T04:34:21;96077.00;;;8.63;100.00
73674;BME280;61975;48.660;10.164;2022-10-31T04:36:47;96082.16;;;8.64;100.00
73674;BME280;61975;48.660;10.164;2022-10-31T04:39:12;96077.44;;;8.65;100.00
73674;BME280;61975;48.660;10.164;2022-10-31T04:41:38;96073.09;;;8.64;100.00
73674;BME280;61975;48.660;10.164;2022-10-31T04:44:03;96070.31;;;8.64;100.00
73674;BME280;61975;48.660;10.164;2022-10-31T04:46:28;96063.59;;;8.65;100.00
73674;BME280;61975;48.660;10.164;2022-10-31T04:48:54;96072.97;;;8.60;100.00
73674;BME280;61975;48.660;10.164;2022-10-31T04:51:19;96053.91;;;8.55;100.00
73674;BME280;61975;48.660;10.164;2022-10-31T04:53:45;96062.56;;;8.54;100.00
73674;BME280;61975;48.660;10.164;2022-10-31T04:56:10;96055.34;;;8.49;100.00
73674;BME280;61975;48.660;10.164;2022-10-31T04:58:35;96057.66;;;8.47;100.00
73674;BME280;61975;48.660;10.164;2022-10-31T05:01:01;96050.53;;;8.46;100.00
73674;BME280;61975;48.660;10.164;2022-10-31T05:03:26;96056.41;;;8.44;100.00
73674;BME280;61975;48.660;10.164;2022-10-31T05:05:51;96046.88;;;8.42;100.00
73674;BME280;61975;48.660;10.164;2022-10-31T05:08:17;96053.94;;;8.39;100.00
73674;BME280;61975;48.660;10.164;2022-10-31T05:10:42;96050.28;;;8.35;100.00
73674;BME280;61975;48.660;10.164;2022-10-31T05:13:07;96049.00;;;8.33;100.00
73674;BME280;61975;48.660;10.164;2022-10-31T05:15:33;96051.34;;;8.31;100.00
73674;BME280;61975;48.660;10.164;2022-10-31T05:17:58;96052.88;;;8.28;100.00
73674;BME280;61975;48.660;10.164;2022-10-31T05:20:26;96053.13;;;8.23;100.00
73674;BME280;61975;48.660;10.164;2022-10-31T05:22:54;96048.66;;;8.19;100.00
73674;BME280;61975;48.660;10.164;2022-10-31T05:25:21;96044.75;;;8.20;100.00
73674;BME280;61975;48.660;10.164;2022-10-31T05:27:49;96039.09;;;8.16;100.00
73674;BME280;61975;48.660;10.164;2022-10-31T05:30:17;96043.41;;;8.14;100.00
73674;BME280;61975;48.660;10.164;2022-10-31T05:32:45;96041.81;;;8.13;100.00
73674;BME280;61975;48.660;10.164;2022-10-31T05:35:13;96042.59;;;8.13;100.00
73674;BME280;61975;48.660;10.164;2022-10-31T05:37:39;96040.63;;;8.14;100.00
73674;BME280;61975;48.660;10.164;2022-10-31T05:40:07;96030.75;;;8.13;100.00
73674;BME280;61975;48.660;10.164;2022-10-31T05:42:33;96034.28;;;8.13;100.00
73674;BME280;61975;48.660;10.164;2022-10-31T05:44:58;96038.28;;;8.16;100.00
73674;BME280;61975;48.660;10.164;2022-10-31T05:47:24;96027.63;;;8.14;100.00
73674;BME280;61975;48.660;10.164;2022-10-31T05:49:50;96034.75;;;8.15;100.00
73674;BME280;61975;48.660;10.164;2022-10-31T05:52:15;96039.91;;;8.17;100.00
73674;BME280;61975;48.660;10.164;2022-10-31T05:54:41;96034.38;;;8.17;100.00
73674;BME280;61975;48.660;10.164;2022-10-31T05:57:06;96038.03;;;8.21;100.00
73674;BME280;61975;48.660;10.164;2022-10-31T05:59:31;96034.94;;;8.22;100.00
73674;BME280;61975;48.660;10.164;2022-10-31T06:01:57;96033.41;;;8.25;100.00
73674;BME280;61975;48.660;10.164;2022-10-31T06:04:22;96033.06;;;8.26;100.00
73674;BME280;61975;48.660;10.164;2022-10-31T06:06:48;96030.38;;;8.30;100.00
73674;BME280;61975;48.660;10.164;2022-10-31T06:09:13;96032.00;;;8.31;100.00
73674;BME280;61975;48.660;10.164;2022-10-31T06:11:39;96031.28;;;8.34;100.00
73674;BME280;61975;48.660;10.164;2022-10-31T06:14:04;96018.59;;;8.33;100.00
73674;BME280;61975;48.660;10.164;2022-10-31T06:16:30;96016.63;;;8.33;100.00
73674;BME280;61975;48.660;10.164;2022-10-31T06:18:55;96021.81;;;8.35;100.00
73674;BME280;61975;48.660;10.164;2022-10-31T06:21:21;96027.34;;;8.35;100.00
73674;BME280;61975;48.660;10.164;2022-10-31T06:23:46;96017.34;;;8.30;100.00
73674;BME280;61975;48.660;10.164;2022-10-31T06:26:12;96025.22;;;8.28;100.00
73674;BME280;61975;48.660;10.164;2022-10-31T06:28:37;96025.66;;;8.30;100.00
73674;BME280;61975;48.660;10.164;2022-10-31T06:31:02;96032.00;;;8.31;100.00
73674;BME280;61975;48.660;10.164;2022-10-31T06:33:28;96024.84;;;8.30;100.00
73674;BME280;61975;48.660;10.164;2022-10-31T06:35:53;96027.59;;;8.30;100.00
73674;BME280;61975;48.660;10.164;2022-10-31T06:38:19;96019.31;;;8.30;100.00
73674;BME280;61975;48.660;10.164;2022-10-31T06:40:44;96018.94;;;8.31;100.00
73674;BME280;61975;48.660;10.164;2022-10-31T06:43:09;96020.94;;;8.31;100.00
73674;BME280;61975;48.660;10.164;2022-10-31T06:45:36;96028.50;;;8.34;100.00
73674;BME280;61975;48.660;10.164;2022-10-31T06:48:02;96030.56;;;8.37;100.00
73674;BME280;61975;48.660;10.164;2022-10-31T06:50:27;96038.41;;;8.35;100.00
73674;BME280;61975;48.660;10.164;2022-10-31T06:52:54;96040.09;;;8.39;100.00
73674;BME280;61975;48.660;10.164;2022-10-31T06:55:21;96036.25;;;8.44;100.00
73674;BME280;61975;48.660;10.164;2022-10-31T06:57:55;96037.22;;;8.52;100.00
73674;BME280;61975;48.660;10.164;2022-10-31T07:00:21;96041.66;;;8.56;100.00
73674;BME280;61975;48.660;10.164;2022-10-31T07:02:54;96038.19;;;8.59;100.00
73674;BME280;61975;48.660;10.164;2022-10-31T07:05:19;96040.66;;;8.64;100.00
73674;BME280;61975;48.660;10.164;2022-10-31T07:07:45;96036.44;;;8.70;100.00
73674;BME280;61975;48.660;10.164;2022-10-31T07:10:10;96038.56;;;8.77;100.00
73674;BME280;61975;48.660;10.164;2022-10-31T07:12:36;96035.53;;;8.82;100.00
73674;BME280;61975;48.660;10.164;2022-10-31T07:15:01;96041.94;;;8.86;100.00
73674;BME280;61975;48.660;10.164;2022-10-31T07:17:26;96037.38;;;8.93;100.00
73674;BME280;61975;48.660;10.164;2022-10-31T07:19:52;96038.66;;;8.99;100.00
73674;BME280;61975;48.660;10.164;2022-10-31T07:22:17;96039.97;;;9.05;100.00
73674;BME280;61975;48.660;10.164;2022-10-31T07:24:42;96038.94;;;9.13;100.00
73674;BME280;61975;48.660;10.164;2022-10-31T07:27:08;96048.31;;;9.24;100.00
73674;BME280;61975;48.660;10.164;2022-10-31T07:29:33;96048.44;;;9.31;100.00
73674;BME280;61975;48.660;10.164;2022-10-31T07:31:58;96042.31;;;9.41;100.00
73674;BME280;61975;48.660;10.164;2022-10-31T07:34:24;96052.06;;;9.54;100.00
73674;BME280;61975;48.660;10.164;2022-10-31T07:36:50;96049.13;;;9.66;100.00
73674;BME280;61975;48.660;10.164;2022-10-31T07:39:15;96052.44;;;9.75;100.00
73674;BME280;61975;48.660;10.164;2022-10-31T07:41:41;96051.84;;;9.85;100.00
73674;BME280;61975;48.660;10.164;2022-10-31T07:44:06;96041.44;;;10.01;100.00
73674;BME280;61975;48.660;10.164;2022-10-31T07:46:32;96041.34;;;10.17;100.00
73674;BME280;61975;48.660;10.164;2022-10-31T07:48:58;96041.22;;;10.32;100.00
73674;BME280;61975;48.660;10.164;2022-10-31T07:51:23;96041.88;;;10.48;100.00
73674;BME280;61975;48.660;10.164;2022-10-31T07:53:49;96037.31;;;10.63;100.00
73674;BME280;61975;48.660;10.164;2022-10-31T07:56:14;96032.03;;;10.80;100.00
73674;BME280;61975;48.660;10.164;2022-10-31T07:58:40;96031.50;;;10.97;100.00
73674;BME280;61975;48.660;10.164;2022-10-31T08:01:05;96036.50;;;11.18;100.00
73674;BME280;61975;48.660;10.164;2022-10-31T08:03:30;96033.91;;;11.32;100.00
73674;BME280;61975;48.660;10.164;2022-10-31T08:05:56;96029.75;;;11.49;99.91
73674;BME280;61975;48.660;10.164;2022-10-31T08:08:21;96033.97;;;11.69;97.98
73674;BME280;61975;48.660;10.164;2022-10-31T08:10:49;96027.03;;;11.89;97.00
73674;BME280;61975;48.660;10.164;2022-10-31T08:13:14;96026.81;;;12.08;95.75
73674;BME280;61975;48.660;10.164;2022-10-31T08:15:40;96027.78;;;12.26;94.65
73674;BME280;61975;48.660;10.164;2022-10-31T08:18:11;96025.53;;;12.42;93.77
73674;BME280;61975;48.660;10.164;2022-10-31T08:20:38;96020.44;;;12.54;94.31
73674;BME280;61975;48.660;10.164;2022-10-31T08:23:04;96025.31;;;12.64;95.13
73674;BME280;61975;48.660;10.164;2022-10-31T08:25:32;96015.00;;;12.72;94.79
73674;BME280;61975;48.660;10.164;2022-10-31T08:27:58;96027.78;;;12.80;94.51
73674;BME280;61975;48.660;10.164;2022-10-31T08:30:26;96020.72;;;12.93;93.96
73674;BME280;61975;48.660;10.164;2022-10-31T08:33:18;96022.41;;;13.08;94.00
73674;BME280;61975;48.660;10.164;2022-10-31T08:35:44;96009.75;;;13.21;92.98
73674;BME280;61975;48.660;10.164;2022-10-31T08:38:11;96005.00;;;13.32;93.83
73674;BME280;61975;48.660;10.164;2022-10-31T08:40:37;96011.03;;;13.44;93.18
73674;BME280;61975;48.660;10.164;2022-10-31T08:45:33;96009.91;;;13.63;92.05
73674;BME280;61975;48.660;10.164;2022-10-31T08:48:00;96003.56;;;13.69;91.83
73674;BME280;61975;48.660;10.164;2022-10-31T08:50:27;96006.34;;;13.66;92.48
73674;BME280;61975;48.660;10.164;2022-10-31T08:52:53;96000.81;;;13.76;92.45
73674;BME280;61975;48.660;10.164;2022-10-31T08:55:18;96002.00;;;13.86;92.58
73674;BME280;61975;48.660;10.164;2022-10-31T08:57:44;95997.63;;;13.96;91.69
73674;BME280;61975;48.660;10.164;2022-10-31T09:00:09;96004.84;;;14.07;90.36
73674;BME280;61975;48.660;10.164;2022-10-31T09:02:35;96004.06;;;14.17;89.41
73674;BME280;61975;48.660;10.164;2022-10-31T09:05:02;95996.47;;;14.21;89.02
73674;BME280;61975;48.660;10.164;2022-10-31T09:07:27;95997.31;;;14.25;89.08
73674;BME280;61975;48.660;10.164;2022-10-31T09:09:53;95997.69;;;14.20;89.79
73674;BME280;61975;48.660;10.164;2022-10-31T09:12:18;95988.53;;;14.30;89.62
73674;BME280;61975;48.660;10.164;2022-10-31T09:14:43;96002.09;;;14.42;90.04
73674;BME280;61975;48.660;10.164;2022-10-31T09:17:09;95995.28;;;14.50;91.02
73674;BME280;61975;48.660;10.164;2022-10-31T09:19:34;95995.72;;;14.56;91.96
73674;BME280;61975;48.660;10.164;2022-10-31T09:22:01;95990.91;;;14.63;92.23
73674;BME280;61975;48.660;10.164;2022-10-31T09:24:26;95998.88;;;14.72;92.30
73674;BME280;61975;48.660;10.164;2022-10-31T09:26:51;95997.28;;;14.78;92.23
73674;BME280;61975;48.660;10.164;2022-10-31T09:29:17;95994.88;;;14.83;91.49
73674;BME280;61975;48.660;10.164;2022-10-31T09:31:42;95996.06;;;14.89;92.11
73674;BME280;61975;48.660;10.164;2022-10-31T09:34:07;95991.63;;;14.95;92.01
73674;BME280;61975;48.660;10.164;2022-10-31T09:36:33;95982.06;;;15.00;92.08
73674;BME280;61975;48.660;10.164;2022-10-31T09:38:58;95994.03;;;15.04;92.14
73674;BME280;61975;48.660;10.164;2022-10-31T09:41:42;95987.63;;;15.10;91.20
73674;BME280;61975;48.660;10.164;2022-10-31T09:47:02;95985.59;;;15.21;90.14
73674;BME280;61975;48.660;10.164;2022-10-31T09:52:35;95989.13;;;15.32;90.86
73674;BME280;61975;48.660;10.164;2022-10-31T09:57:40;95992.31;;;15.48;90.65
73674;BME280;61975;48.660;10.164;2022-10-31T10:00:10;95997.84;;;15.59;90.55
73674;BME280;61975;48.660;10.164;2022-10-31T10:02:56;95988.63;;;15.65;91.19
73674;BME280;61975;48.660;10.164;2022-10-31T10:05:30;95993.84;;;15.67;90.48
73674;BME280;61975;48.660;10.164;2022-10-31T10:08:07;95979.00;;;15.70;89.94
73674;BME280;61975;48.660;10.164;2022-10-31T10:10:44;95984.19;;;15.75;91.28
73674;BME280;61975;48.660;10.164;2022-10-31T10:13:28;95975.34;;;15.83;89.64
73674;BME280;61975;48.660;10.164;2022-10-31T10:16:09;95978.88;;;15.94;89.20
73674;BME280;61975;48.660;10.164;2022-10-31T10:21:28;95973.72;;;15.89;89.87
73674;BME280;61975;48.660;10.164;2022-10-31T10:26:36;95970.31;;;16.15;90.74
73674;BME280;61975;48.660;10.164;2022-10-31T10:32:19;95958.09;;;16.47;90.51
73674;BME280;61975;48.660;10.164;2022-10-31T10:34:51;95965.22;;;16.55;89.53
73674;BME280;61975;48.660;10.164;2022-10-31T10:39:54;95952.00;;;16.59;89.86
73674;BME280;61975;48.660;10.164;2022-10-31T10:42:22;95951.53;;;16.64;89.23
73674;BME280;61975;48.660;10.164;2022-10-31T10:45:19;95953.88;;;16.69;90.14
73674;BME280;61975;48.660;10.164;2022-10-31T10:48:16;95955.44;;;16.73;90.80
73674;BME280;61975;48.660;10.164;2022-10-31T10:50:48;95956.25;;;16.74;88.75
73674;BME280;61975;48.660;10.164;2022-10-31T10:53:27;95952.22;;;16.75;89.48
73674;BME280;61975;48.660;10.164;2022-10-31T10:56:21;95952.47;;;16.91;89.82
73674;BME280;61975;48.660;10.164;2022-10-31T10:58:56;95943.94;;;17.01;89.56
73674;BME280;61975;48.660;10.164;2022-10-31T11:01:23;95947.84;;;17.11;89.87
73674;BME280;61975;48.660;10.164;2022-10-31T11:03:49;95947.28;;;17.23;89.93
73674;BME280;61975;48.660;10.164;2022-10-31T11:06:22;95948.75;;;17.34;88.92
73674;BME280;61975;48.660;10.164;2022-10-31T11:08:51;95941.09;;;17.42;88.59
73674;BME280;61975;48.660;10.164;2022-10-31T11:13:44;95931.19;;;17.60;86.71
73674;BME280;61975;48.660;10.164;2022-10-31T11:16:14;95928.28;;;17.67;85.78
73674;BME280;61975;48.660;10.164;2022-10-31T11:18:42;95924.97;;;17.76;85.69
73674;BME280;61975;48.660;10.164;2022-10-31T11:21:28;95931.16;;;17.94;89.57
73674;BME280;61975;48.660;10.164;2022-10-31T11:26:36;95922.63;;;18.01;87.41
73674;BME280;61975;48.660;10.164;2022-10-31T11:29:04;95907.28;;;18.05;86.43
73674;BME280;61975;48.660;10.164;2022-10-31T11:31:31;95897.94;;;18.12;85.38
73674;BME280;61975;48.660;10.164;2022-10-31T11:34:03;95905.00;;;18.23;83.48
73674;BME280;61975;48.660;10.164;2022-10-31T11:36:32;95907.63;;;18.34;83.57
73674;BME280;61975;48.660;10.164;2022-10-31T11:38:59;95902.84;;;18.31;83.25
73674;BME280;61975;48.660;10.164;2022-10-31T11:41:32;95896.09;;;18.51;83.73
73674;BME280;61975;48.660;10.164;2022-10-31T11:44:02;95892.19;;;18.68;81.46
73674;BME280;61975;48.660;10.164;2022-10-31T11:46:35;95898.88;;;18.74;79.78
73674;BME280;61975;48.660;10.164;2022-10-31T11:49:03;95893.06;;;18.85;79.44
73674;BME280;61975;48.660;10.164;2022-10-31T11:51:32;95875.53;;;18.97;77.83
73674;BME280;61975;48.660;10.164;2022-10-31T11:53:59;95879.75;;;19.08;77.16
73674;BME280;61975;48.660;10.164;2022-10-31T11:56:28;95874.13;;;19.08;76.62
73674;BME280;61975;48.660;10.164;2022-10-31T11:59:04;95877.34;;;19.07;75.69
73674;BME280;61975;48.660;10.164;2022-10-31T12:01:32;95871.59;;;19.14;75.81
73674;BME280;61975;48.660;10.164;2022-10-31T12:04:07;95875.00;;;19.25;75.28
73674;BME280;61975;48.660;10.164;2022-10-31T12:06:35;95866.25;;;19.39;73.81
73674;BME280;61975;48.660;10.164;2022-10-31T12:09:02;95864.38;;;19.52;73.08
73674;BME280;61975;48.660;10.164;2022-10-31T12:14:41;95848.34;;;19.49;71.49
73674;BME280;61975;48.660;10.164;2022-10-31T12:17:18;95850.81;;;19.47;71.53
73674;BME280;61975;48.660;10.164;2022-10-31T12:23:06;95839.66;;;19.60;71.36
73674;BME280;61975;48.660;10.164;2022-10-31T12:25:48;95839.56;;;19.63;70.45
73674;BME280;61975;48.660;10.164;2022-10-31T12:31:32;95837.34;;;19.74;70.46
73674;BME280;61975;48.660;10.164;2022-10-31T12:44:08;95827.31;;;19.89;69.91
73674;BME280;61975;48.660;10.164;2022-10-31T12:51:50;95809.44;;;19.80;69.71
73674;BME280;61975;48.660;10.164;2022-10-31T13:00:12;95802.94;;;19.47;71.06
73674;BME280;61975;48.660;10.164;2022-10-31T13:10:28;95795.53;;;19.18;73.41
73674;BME280;61975;48.660;10.164;2022-10-31T13:13:00;95784.78;;;19.13;73.52
73674;BME280;61975;48.660;10.164;2022-10-31T13:15:32;95785.81;;;19.22;73.27
73674;BME280;61975;48.660;10.164;2022-10-31T13:18:03;95782.06;;;19.29;73.35
73674;BME280;61975;48.660;10.164;2022-10-31T13:20:33;95776.13;;;19.23;72.93
73674;BME280;61975;48.660;10.164;2022-10-31T13:23:29;95778.94;;;19.23;73.35
73674;BME280;61975;48.660;10.164;2022-10-31T13:25:56;95769.34;;;19.21;73.37
73674;BME280;61975;48.660;10.164;2022-10-31T13:28:35;95772.22;;;19.17;73.50
73674;BME280;61975;48.660;10.164;2022-10-31T13:31:02;95761.22;;;19.07;74.57
73674;BME280;61975;48.660;10.164;2022-10-31T13:41:52;95749.34;;;18.60;77.62
73674;BME280;61975;48.660;10.164;2022-10-31T13:46:45;95747.97;;;18.48;78.84
73674;BME280;61975;48.660;10.164;2022-10-31T13:54:48;95741.25;;;18.42;79.26
73674;BME280;61975;48.660;10.164;2022-10-31T13:57:22;95741.63;;;18.44;79.09
73674;BME280;61975;48.660;10.164;2022-10-31T14:00:04;95742.63;;;18.54;78.68
73674;BME280;61975;48.660;10.164;2022-10-31T14:02:33;95735.84;;;18.71;77.49
73674;BME280;61975;48.660;10.164;2022-10-31T14:05:51;95735.00;;;19.45;73.63
73674;BME280;61975;48.660;10.164;2022-10-31T14:07:52;95730.09;;;20.70;67.46
73674;BME280;61975;48.660;10.164;2022-10-31T14:10:26;95715.47;;;21.04;65.30
73674;BME280;61975;48.660;10.164;2022-10-31T14:13:02;95722.97;;;20.94;65.19
73674;BME280;61975;48.660;10.164;2022-10-31T14:15:29;95723.25;;;20.71;65.72
73674;BME280;61975;48.660;10.164;2022-10-31T14:17:56;95717.84;;;20.48;67.13
73674;BME280;61975;48.660;10.164;2022-10-31T14:20:41;95706.03;;;20.25;68.12
73674;BME280;61975;48.660;10.164;2022-10-31T14:25:37;95716.69;;;20.01;69.40
73674;BME280;61975;48.660;10.164;2022-10-31T14:28:19;95708.97;;;20.05;69.13
73674;BME280;61975;48.660;10.164;2022-10-31T14:30:56;95701.91;;;20.13;69.12
73674;BME280;61975;48.660;10.164;2022-10-31T14:33:25;95703.59;;;20.68;67.51
73674;BME280;61975;48.660;10.164;2022-10-31T14:36:01;95690.31;;;23.57;57.73
73674;BME280;61975;48.660;10.164;2022-10-31T14:41:37;95689.06;;;29.54;41.47
73674;BME280;61975;48.660;10.164;2022-10-31T14:50:12;95687.78;;;32.78;33.66
73674;BME280;61975;48.660;10.164;2022-10-31T14:52:32;95686.03;;;33.21;32.79
73674;BME280;61975;48.660;10.164;2022-10-31T14:55:00;95690.78;;;34.00;31.37
73674;BME280;61975;48.660;10.164;2022-10-31T14:57:32;95696.75;;;34.07;31.23
73674;BME280;61975;48.660;10.164;2022-10-31T15:00:16;95696.25;;;34.33;30.03
73674;BME280;61975;48.660;10.164;2022-10-31T15:03:16;95691.34;;;34.52;29.88